< < Back
Terminal Aerodrome Forecast


Current Version              Previous Versions:   1  2  3  4  5  6  7  8  9  

Terminal Aerodrome Forecast

221
FTUS42 KTAE 311729
TAFTLH
TAF
KTLH 311729Z 3118/0118 06007KT P6SM SCT030
     FM010000 08004KT P6SM FEW040 SCT250
     FM011500 08007KT P6SM VCSH BKN040=



Latest METAR

973
SAUS80 KWBC 011200 RRE
MTRTLH
METAR KTLH 011153Z 00000KT 10SM FEW020 BKN250 24/22 A3007 RMK AO2 SLP182
T02390222 10250 20222 53014


USA.gov is the U.S. government's official web portal to all federal, state and local government web resources and services.